Terminal Aerodrome Forecast
Issued by NWS

Home | Current Version | Previous Version | Text Only | Print | Product List | Glossary On
Versions: 1 2 3 4 5 6 7 8 9 10 11 12 13 14 15 16 17 18 19 20 21 22
000
FTUS41 KBGM 261400 AAA
TAFITH
TAF AMD
KITH 261400Z 2614/2712 03005KT P6SM BKN035 OVC050
     FM261600 36009KT 1SM -SN OVC015
     FM270100 33009KT 3SM -SN OVC022=

USA.gov is the U.S. government's official web portal to all federal, state and local government web resources and services.